sensor_id;sensor_type;location;lat;lon;timestamp;temperature;humidity
10070;DHT22;5074;53.720;10.014;2022-09-09T00:00:12;14.20;99.90
10070;DHT22;5074;53.720;10.014;2022-09-09T00:02:42;14.20;99.90
10070;DHT22;5074;53.720;10.014;2022-09-09T00:05:19;14.20;99.90
10070;DHT22;5074;53.720;10.014;2022-09-09T00:07:57;14.20;99.90
10070;DHT22;5074;53.720;10.014;2022-09-09T00:10:30;14.20;99.90
10070;DHT22;5074;53.720;10.014;2022-09-09T00:13:02;14.20;99.90
10070;DHT22;5074;53.720;10.014;2022-09-09T00:15:41;14.20;99.90
10070;DHT22;5074;53.720;10.014;2022-09-09T00:18:18;14.20;99.90
10070;DHT22;5074;53.720;10.014;2022-09-09T00:20:53;14.20;99.90
10070;DHT22;5074;53.720;10.014;2022-09-09T00:23:28;14.20;99.90
10070;DHT22;5074;53.720;10.014;2022-09-09T00:26:02;14.20;99.90
10070;DHT22;5074;53.720;10.014;2022-09-09T00:28:36;14.20;99.90
10070;DHT22;5074;53.720;10.014;2022-09-09T00:31:11;14.20;99.90
10070;DHT22;5074;53.720;10.014;2022-09-09T00:33:41;14.20;99.90
10070;DHT22;5074;53.720;10.014;2022-09-09T00:36:12;14.20;99.90
10070;DHT22;5074;53.720;10.014;2022-09-09T00:38:45;14.30;99.90
10070;DHT22;5074;53.720;10.014;2022-09-09T00:41:18;14.30;99.90
10070;DHT22;5074;53.720;10.014;2022-09-09T00:43:54;14.30;99.90
10070;DHT22;5074;53.720;10.014;2022-09-09T00:46:29;14.30;99.90
10070;DHT22;5074;53.720;10.014;2022-09-09T00:49:13;14.30;99.90
10070;DHT22;5074;53.720;10.014;2022-09-09T00:51:48;14.30;99.90
10070;DHT22;5074;53.720;10.014;2022-09-09T00:54:30;14.30;99.90
10070;DHT22;5074;53.720;10.014;2022-09-09T00:57:12;14.20;99.90
10070;DHT22;5074;53.720;10.014;2022-09-09T00:59:46;14.30;99.90
10070;DHT22;5074;53.720;10.014;2022-09-09T01:02:21;14.30;99.90
10070;DHT22;5074;53.720;10.014;2022-09-09T01:04:57;14.30;99.90
10070;DHT22;5074;53.720;10.014;2022-09-09T01:07:31;14.30;99.90
10070;DHT22;5074;53.720;10.014;2022-09-09T01:10:03;14.20;99.90
10070;DHT22;5074;53.720;10.014;2022-09-09T01:12:40;14.20;99.90
10070;DHT22;5074;53.720;10.014;2022-09-09T01:15:10;14.20;99.90
10070;DHT22;5074;53.720;10.014;2022-09-09T01:17:50;14.20;99.90
10070;DHT22;5074;53.720;10.014;2022-09-09T01:20:25;14.20;99.90
10070;DHT22;5074;53.720;10.014;2022-09-09T01:23:01;14.20;99.90
10070;DHT22;5074;53.720;10.014;2022-09-09T01:28:49;14.20;99.90
10070;DHT22;5074;53.720;10.014;2022-09-09T01:31:20;14.20;99.90
10070;DHT22;5074;53.720;10.014;2022-09-09T01:33:50;14.30;99.90
10070;DHT22;5074;53.720;10.014;2022-09-09T01:36:20;14.30;99.90
10070;DHT22;5074;53.720;10.014;2022-09-09T01:38:55;14.30;99.90
10070;DHT22;5074;53.720;10.014;2022-09-09T01:41:25;14.30;99.90
10070;DHT22;5074;53.720;10.014;2022-09-09T01:43:54;14.30;99.90
10070;DHT22;5074;53.720;10.014;2022-09-09T01:46:22;14.30;99.90
10070;DHT22;5074;53.720;10.014;2022-09-09T01:48:51;14.30;99.90
10070;DHT22;5074;53.720;10.014;2022-09-09T01:51:20;14.30;99.90
10070;DHT22;5074;53.720;10.014;2022-09-09T01:53:49;14.30;99.90
10070;DHT22;5074;53.720;10.014;2022-09-09T01:56:31;14.30;99.90
10070;DHT22;5074;53.720;10.014;2022-09-09T01:59:11;14.30;99.90
10070;DHT22;5074;53.720;10.014;2022-09-09T02:01:55;14.30;99.90
10070;DHT22;5074;53.720;10.014;2022-09-09T02:04:36;14.20;99.90
10070;DHT22;5074;53.720;10.014;2022-09-09T02:07:07;14.30;99.90
10070;DHT22;5074;53.720;10.014;2022-09-09T02:09:47;14.30;99.90
10070;DHT22;5074;53.720;10.014;2022-09-09T02:12:21;14.30;99.90
10070;DHT22;5074;53.720;10.014;2022-09-09T02:14:55;14.30;99.90
10070;DHT22;5074;53.720;10.014;2022-09-09T02:17:26;14.30;99.90
10070;DHT22;5074;53.720;10.014;2022-09-09T02:19:57;14.20;99.90
10070;DHT22;5074;53.720;10.014;2022-09-09T02:22:32;14.30;99.90
10070;DHT22;5074;53.720;10.014;2022-09-09T02:25:02;14.30;99.90
10070;DHT22;5074;53.720;10.014;2022-09-09T02:27:34;14.20;99.90
10070;DHT22;5074;53.720;10.014;2022-09-09T02:30:02;14.20;99.90
10070;DHT22;5074;53.720;10.014;2022-09-09T02:32:32;14.20;99.90
10070;DHT22;5074;53.720;10.014;2022-09-09T02:35:05;14.20;99.90
10070;DHT22;5074;53.720;10.014;2022-09-09T02:37:37;14.20;99.90
10070;DHT22;5074;53.720;10.014;2022-09-09T02:40:07;14.20;99.90
10070;DHT22;5074;53.720;10.014;2022-09-09T02:42:39;14.20;99.90
10070;DHT22;5074;53.720;10.014;2022-09-09T02:45:08;14.20;99.90
10070;DHT22;5074;53.720;10.014;2022-09-09T02:47:38;14.10;99.90
10070;DHT22;5074;53.720;10.014;2022-09-09T02:50:15;14.10;99.90
10070;DHT22;5074;53.720;10.014;2022-09-09T02:52:50;14.10;99.90
10070;DHT22;5074;53.720;10.014;2022-09-09T02:55:30;14.10;99.90
10070;DHT22;5074;53.720;10.014;2022-09-09T02:58:08;14.10;99.90
10070;DHT22;5074;53.720;10.014;2022-09-09T03:00:39;14.00;99.90
10070;DHT22;5074;53.720;10.014;2022-09-09T03:03:08;14.00;99.90
10070;DHT22;5074;53.720;10.014;2022-09-09T03:05:36;14.00;99.90
10070;DHT22;5074;53.720;10.014;2022-09-09T03:08:05;14.00;99.90
10070;DHT22;5074;53.720;10.014;2022-09-09T03:10:33;14.00;99.90
10070;DHT22;5074;53.720;10.014;2022-09-09T03:13:02;14.00;99.90
10070;DHT22;5074;53.720;10.014;2022-09-09T03:15:32;14.00;99.90
10070;DHT22;5074;53.720;10.014;2022-09-09T03:18:00;14.00;99.90
10070;DHT22;5074;53.720;10.014;2022-09-09T03:20:29;14.00;99.90
10070;DHT22;5074;53.720;10.014;2022-09-09T03:22:59;14.00;99.90
10070;DHT22;5074;53.720;10.014;2022-09-09T03:25:28;14.00;99.90
10070;DHT22;5074;53.720;10.014;2022-09-09T03:27:56;14.00;99.90
10070;DHT22;5074;53.720;10.014;2022-09-09T03:30:25;13.90;99.90
10070;DHT22;5074;53.720;10.014;2022-09-09T03:32:56;13.90;99.90
10070;DHT22;5074;53.720;10.014;2022-09-09T03:35:24;13.90;99.90
10070;DHT22;5074;53.720;10.014;2022-09-09T03:37:52;13.90;99.90
10070;DHT22;5074;53.720;10.014;2022-09-09T03:40:22;13.80;99.90
10070;DHT22;5074;53.720;10.014;2022-09-09T03:42:50;13.90;99.90
10070;DHT22;5074;53.720;10.014;2022-09-09T03:45:18;13.80;99.90
10070;DHT22;5074;53.720;10.014;2022-09-09T03:47:46;13.80;99.90
10070;DHT22;5074;53.720;10.014;2022-09-09T03:50:15;13.80;99.90
10070;DHT22;5074;53.720;10.014;2022-09-09T03:52:44;13.80;99.90
10070;DHT22;5074;53.720;10.014;2022-09-09T03:55:13;13.80;99.90
10070;DHT22;5074;53.720;10.014;2022-09-09T03:57:41;13.80;99.90
10070;DHT22;5074;53.720;10.014;2022-09-09T04:00:09;13.80;99.90
10070;DHT22;5074;53.720;10.014;2022-09-09T04:02:38;13.80;99.90
10070;DHT22;5074;53.720;10.014;2022-09-09T04:05:06;13.80;99.90
10070;DHT22;5074;53.720;10.014;2022-09-09T04:07:36;13.80;99.90
10070;DHT22;5074;53.720;10.014;2022-09-09T04:10:04;13.70;99.90
10070;DHT22;5074;53.720;10.014;2022-09-09T04:12:33;13.70;99.90
10070;DHT22;5074;53.720;10.014;2022-09-09T04:15:02;13.70;99.90
10070;DHT22;5074;53.720;10.014;2022-09-09T04:17:30;13.60;99.90
10070;DHT22;5074;53.720;10.014;2022-09-09T04:19:59;13.50;99.90
10070;DHT22;5074;53.720;10.014;2022-09-09T04:22:27;13.60;99.90
10070;DHT22;5074;53.720;10.014;2022-09-09T04:24:57;13.60;99.90
10070;DHT22;5074;53.720;10.014;2022-09-09T04:27:25;13.60;99.90
10070;DHT22;5074;53.720;10.014;2022-09-09T04:29:52;13.60;99.90
10070;DHT22;5074;53.720;10.014;2022-09-09T04:32:22;13.50;99.90
10070;DHT22;5074;53.720;10.014;2022-09-09T04:34:53;13.50;99.90
10070;DHT22;5074;53.720;10.014;2022-09-09T04:37:21;13.50;99.90
10070;DHT22;5074;53.720;10.014;2022-09-09T04:39:49;13.50;99.90
10070;DHT22;5074;53.720;10.014;2022-09-09T04:42:18;13.50;99.90
10070;DHT22;5074;53.720;10.014;2022-09-09T04:44:46;13.60;99.90
10070;DHT22;5074;53.720;10.014;2022-09-09T04:47:14;13.60;99.90
10070;DHT22;5074;53.720;10.014;2022-09-09T04:49:42;13.60;99.90
10070;DHT22;5074;53.720;10.014;2022-09-09T04:52:10;13.50;99.90
10070;DHT22;5074;53.720;10.014;2022-09-09T04:54:38;13.50;99.90
10070;DHT22;5074;53.720;10.014;2022-09-09T04:57:06;13.60;99.90
10070;DHT22;5074;53.720;10.014;2022-09-09T04:59:36;13.60;99.90
10070;DHT22;5074;53.720;10.014;2022-09-09T05:02:04;13.60;99.90
10070;DHT22;5074;53.720;10.014;2022-09-09T05:04:32;13.60;99.90
10070;DHT22;5074;53.720;10.014;2022-09-09T05:07:00;13.60;99.90
10070;DHT22;5074;53.720;10.014;2022-09-09T05:09:28;13.60;99.90
10070;DHT22;5074;53.720;10.014;2022-09-09T05:11:57;13.60;99.90
10070;DHT22;5074;53.720;10.014;2022-09-09T05:14:25;13.60;99.90
10070;DHT22;5074;53.720;10.014;2022-09-09T05:16:55;13.70;99.90
10070;DHT22;5074;53.720;10.014;2022-09-09T05:19:24;13.70;99.90
10070;DHT22;5074;53.720;10.014;2022-09-09T05:21:52;13.70;99.90
10070;DHT22;5074;53.720;10.014;2022-09-09T05:24:20;13.60;99.90
10070;DHT22;5074;53.720;10.014;2022-09-09T05:26:49;13.50;99.90
10070;DHT22;5074;53.720;10.014;2022-09-09T05:29:17;13.60;99.90
10070;DHT22;5074;53.720;10.014;2022-09-09T05:31:46;13.50;99.90
10070;DHT22;5074;53.720;10.014;2022-09-09T05:34:16;13.50;99.90
10070;DHT22;5074;53.720;10.014;2022-09-09T05:36:44;13.50;99.90
10070;DHT22;5074;53.720;10.014;2022-09-09T05:39:11;13.50;99.90
10070;DHT22;5074;53.720;10.014;2022-09-09T05:41:39;13.40;99.90
10070;DHT22;5074;53.720;10.014;2022-09-09T05:44:07;13.50;99.90
10070;DHT22;5074;53.720;10.014;2022-09-09T05:46:35;13.40;99.90
10070;DHT22;5074;53.720;10.014;2022-09-09T05:49:04;13.40;99.90
10070;DHT22;5074;53.720;10.014;2022-09-09T05:51:34;13.40;99.90
10070;DHT22;5074;53.720;10.014;2022-09-09T05:54:02;13.40;99.90
10070;DHT22;5074;53.720;10.014;2022-09-09T05:56:30;13.40;99.90
10070;DHT22;5074;53.720;10.014;2022-09-09T05:58:58;13.40;99.90
10070;DHT22;5074;53.720;10.014;2022-09-09T06:01:28;13.40;99.90
10070;DHT22;5074;53.720;10.014;2022-09-09T06:03:58;13.40;99.90
10070;DHT22;5074;53.720;10.014;2022-09-09T06:06:27;13.50;99.90
10070;DHT22;5074;53.720;10.014;2022-09-09T06:09:04;13.50;99.90
10070;DHT22;5074;53.720;10.014;2022-09-09T06:11:36;13.50;99.90
10070;DHT22;5074;53.720;10.014;2022-09-09T06:14:06;13.50;99.90
10070;DHT22;5074;53.720;10.014;2022-09-09T06:16:34;13.60;99.90
10070;DHT22;5074;53.720;10.014;2022-09-09T06:19:04;13.60;99.90
10070;DHT22;5074;53.720;10.014;2022-09-09T06:21:33;13.70;99.90
10070;DHT22;5074;53.720;10.014;2022-09-09T06:24:05;13.70;99.90
10070;DHT22;5074;53.720;10.014;2022-09-09T06:26:35;13.70;99.90
10070;DHT22;5074;53.720;10.014;2022-09-09T06:29:07;13.80;99.90
10070;DHT22;5074;53.720;10.014;2022-09-09T06:31:36;13.90;99.90
10070;DHT22;5074;53.720;10.014;2022-09-09T06:34:05;13.90;99.90
10070;DHT22;5074;53.720;10.014;2022-09-09T06:36:36;13.90;99.90
10070;DHT22;5074;53.720;10.014;2022-09-09T06:39:06;14.00;99.90
10070;DHT22;5074;53.720;10.014;2022-09-09T06:41:40;14.00;99.90
10070;DHT22;5074;53.720;10.014;2022-09-09T06:44:10;14.00;99.90
10070;DHT22;5074;53.720;10.014;2022-09-09T06:46:39;14.10;99.90
10070;DHT22;5074;53.720;10.014;2022-09-09T06:49:07;14.10;99.90
10070;DHT22;5074;53.720;10.014;2022-09-09T06:51:36;14.20;99.90
10070;DHT22;5074;53.720;10.014;2022-09-09T06:54:11;14.20;99.90
10070;DHT22;5074;53.720;10.014;2022-09-09T06:56:40;14.20;99.90
10070;DHT22;5074;53.720;10.014;2022-09-09T06:59:10;14.30;99.90
10070;DHT22;5074;53.720;10.014;2022-09-09T07:01:39;14.30;99.90
10070;DHT22;5074;53.720;10.014;2022-09-09T07:04:08;14.40;99.90
10070;DHT22;5074;53.720;10.014;2022-09-09T07:06:38;14.50;99.90
10070;DHT22;5074;53.720;10.014;2022-09-09T07:09:08;14.50;99.90
10070;DHT22;5074;53.720;10.014;2022-09-09T07:11:39;14.60;99.90
10070;DHT22;5074;53.720;10.014;2022-09-09T07:14:08;14.70;99.90
10070;DHT22;5074;53.720;10.014;2022-09-09T07:16:39;14.80;99.90
10070;DHT22;5074;53.720;10.014;2022-09-09T07:19:08;14.90;99.90
10070;DHT22;5074;53.720;10.014;2022-09-09T07:21:37;15.00;99.90
10070;DHT22;5074;53.720;10.014;2022-09-09T07:24:06;15.10;99.90
10070;DHT22;5074;53.720;10.014;2022-09-09T07:26:37;15.20;99.90
10070;DHT22;5074;53.720;10.014;2022-09-09T07:29:07;15.30;99.90
10070;DHT22;5074;53.720;10.014;2022-09-09T07:31:37;15.30;99.90
10070;DHT22;5074;53.720;10.014;2022-09-09T07:34:06;15.40;99.90
10070;DHT22;5074;53.720;10.014;2022-09-09T07:36:35;15.50;99.90
10070;DHT22;5074;53.720;10.014;2022-09-09T07:39:05;15.60;99.90
10070;DHT22;5074;53.720;10.014;2022-09-09T07:41:34;15.70;99.90
10070;DHT22;5074;53.720;10.014;2022-09-09T07:44:06;15.80;99.90
10070;DHT22;5074;53.720;10.014;2022-09-09T07:46:35;15.80;99.90
10070;DHT22;5074;53.720;10.014;2022-09-09T07:49:05;15.80;99.90
10070;DHT22;5074;53.720;10.014;2022-09-09T07:51:34;15.90;99.90
10070;DHT22;5074;53.720;10.014;2022-09-09T07:54:04;15.90;99.90
10070;DHT22;5074;53.720;10.014;2022-09-09T07:56:35;15.90;99.90
10070;DHT22;5074;53.720;10.014;2022-09-09T07:59:07;15.90;99.90
10070;DHT22;5074;53.720;10.014;2022-09-09T08:01:36;15.90;99.90
10070;DHT22;5074;53.720;10.014;2022-09-09T08:04:06;16.10;99.90
10070;DHT22;5074;53.720;10.014;2022-09-09T08:06:36;16.10;99.90
10070;DHT22;5074;53.720;10.014;2022-09-09T08:09:06;16.10;99.90
10070;DHT22;5074;53.720;10.014;2022-09-09T08:11:35;16.10;99.90
10070;DHT22;5074;53.720;10.014;2022-09-09T08:14:05;16.20;99.90
10070;DHT22;5074;53.720;10.014;2022-09-09T08:16:36;16.30;99.90
10070;DHT22;5074;53.720;10.014;2022-09-09T08:19:06;16.30;99.90
10070;DHT22;5074;53.720;10.014;2022-09-09T08:21:35;16.40;99.90
10070;DHT22;5074;53.720;10.014;2022-09-09T08:24:05;16.30;99.90
10070;DHT22;5074;53.720;10.014;2022-09-09T08:26:35;16.20;99.90
10070;DHT22;5074;53.720;10.014;2022-09-09T08:29:05;16.20;99.90
10070;DHT22;5074;53.720;10.014;2022-09-09T08:31:37;16.10;99.90
10070;DHT22;5074;53.720;10.014;2022-09-09T08:34:06;16.10;99.90
10070;DHT22;5074;53.720;10.014;2022-09-09T08:36:36;16.10;99.90
10070;DHT22;5074;53.720;10.014;2022-09-09T08:39:07;16.10;99.90
10070;DHT22;5074;53.720;10.014;2022-09-09T08:41:40;16.20;99.90
10070;DHT22;5074;53.720;10.014;2022-09-09T08:44:37;16.20;99.90
10070;DHT22;5074;53.720;10.014;2022-09-09T08:47:18;16.20;99.90
10070;DHT22;5074;53.720;10.014;2022-09-09T08:50:05;16.10;99.90
10070;DHT22;5074;53.720;10.014;2022-09-09T08:52:42;16.10;99.90
10070;DHT22;5074;53.720;10.014;2022-09-09T08:55:21;16.20;99.90
10070;DHT22;5074;53.720;10.014;2022-09-09T08:57:53;16.20;99.90
10070;DHT22;5074;53.720;10.014;2022-09-09T09:00:27;16.20;99.90
10070;DHT22;5074;53.720;10.014;2022-09-09T09:03:01;16.30;99.90
10070;DHT22;5074;53.720;10.014;2022-09-09T09:05:37;16.40;99.90
10070;DHT22;5074;53.720;10.014;2022-09-09T09:08:17;16.60;99.90
10070;DHT22;5074;53.720;10.014;2022-09-09T09:10:53;16.70;99.90
10070;DHT22;5074;53.720;10.014;2022-09-09T09:13:26;16.90;99.90
10070;DHT22;5074;53.720;10.014;2022-09-09T09:16:13;17.10;99.90
10070;DHT22;5074;53.720;10.014;2022-09-09T09:18:48;17.20;99.90
10070;DHT22;5074;53.720;10.014;2022-09-09T09:21:19;17.40;99.90
10070;DHT22;5074;53.720;10.014;2022-09-09T09:23:54;17.50;99.90
10070;DHT22;5074;53.720;10.014;2022-09-09T09:26:26;17.70;99.90
10070;DHT22;5074;53.720;10.014;2022-09-09T09:28:58;17.70;99.90
10070;DHT22;5074;53.720;10.014;2022-09-09T09:31:30;17.90;99.90
10070;DHT22;5074;53.720;10.014;2022-09-09T09:33:58;18.00;99.90
10070;DHT22;5074;53.720;10.014;2022-09-09T09:36:32;18.00;99.90
10070;DHT22;5074;53.720;10.014;2022-09-09T09:39:03;18.00;99.90
10070;DHT22;5074;53.720;10.014;2022-09-09T09:41:51;18.10;99.90
10070;DHT22;5074;53.720;10.014;2022-09-09T09:44:25;18.10;99.90
10070;DHT22;5074;53.720;10.014;2022-09-09T09:47:06;18.10;99.90
10070;DHT22;5074;53.720;10.014;2022-09-09T09:49:35;18.10;99.90
10070;DHT22;5074;53.720;10.014;2022-09-09T09:52:03;18.10;99.90
10070;DHT22;5074;53.720;10.014;2022-09-09T09:54:33;18.10;99.90
10070;DHT22;5074;53.720;10.014;2022-09-09T09:57:08;18.10;99.90
10070;DHT22;5074;53.720;10.014;2022-09-09T09:59:38;18.10;99.90
10070;DHT22;5074;53.720;10.014;2022-09-09T10:02:15;18.10;99.90
10070;DHT22;5074;53.720;10.014;2022-09-09T10:04:45;18.00;99.90
10070;DHT22;5074;53.720;10.014;2022-09-09T10:07:17;18.00;99.90
10070;DHT22;5074;53.720;10.014;2022-09-09T10:09:48;18.10;99.90
10070;DHT22;5074;53.720;10.014;2022-09-09T10:12:23;18.10;99.90
10070;DHT22;5074;53.720;10.014;2022-09-09T10:15:06;18.20;99.90
10070;DHT22;5074;53.720;10.014;2022-09-09T10:17:47;18.20;99.90
10070;DHT22;5074;53.720;10.014;2022-09-09T10:20:27;18.20;99.90
10070;DHT22;5074;53.720;10.014;2022-09-09T10:23:04;18.10;99.90
10070;DHT22;5074;53.720;10.014;2022-09-09T10:28:48;18.00;99.90
10070;DHT22;5074;53.720;10.014;2022-09-09T10:31:30;18.00;99.90
10070;DHT22;5074;53.720;10.014;2022-09-09T10:34:19;18.00;99.90
10070;DHT22;5074;53.720;10.014;2022-09-09T10:37:01;18.10;99.90
10070;DHT22;5074;53.720;10.014;2022-09-09T10:39:35;18.10;99.90
10070;DHT22;5074;53.720;10.014;2022-09-09T10:42:09;18.20;99.90
10070;DHT22;5074;53.720;10.014;2022-09-09T10:44:47;18.30;99.90
10070;DHT22;5074;53.720;10.014;2022-09-09T10:47:35;18.40;99.90
10070;DHT22;5074;53.720;10.014;2022-09-09T10:50:27;18.40;99.90
10070;DHT22;5074;53.720;10.014;2022-09-09T10:53:24;18.40;99.90
10070;DHT22;5074;53.720;10.014;2022-09-09T10:56:04;18.50;99.90
10070;DHT22;5074;53.720;10.014;2022-09-09T10:58:37;18.60;99.90
10070;DHT22;5074;53.720;10.014;2022-09-09T11:01:11;18.70;99.90
10070;DHT22;5074;53.720;10.014;2022-09-09T11:03:44;18.80;99.90
10070;DHT22;5074;53.720;10.014;2022-09-09T11:06:20;18.90;99.90
10070;DHT22;5074;53.720;10.014;2022-09-09T11:08:54;19.00;99.90
10070;DHT22;5074;53.720;10.014;2022-09-09T11:11:26;19.10;99.90
10070;DHT22;5074;53.720;10.014;2022-09-09T11:13:58;19.20;99.90
10070;DHT22;5074;53.720;10.014;2022-09-09T11:16:33;19.20;99.90
10070;DHT22;5074;53.720;10.014;2022-09-09T11:19:11;19.20;99.90
10070;DHT22;5074;53.720;10.014;2022-09-09T11:21:48;19.20;99.90
10070;DHT22;5074;53.720;10.014;2022-09-09T11:24:20;19.30;99.90
10070;DHT22;5074;53.720;10.014;2022-09-09T11:26:52;19.40;99.90
10070;DHT22;5074;53.720;10.014;2022-09-09T11:32:34;19.60;99.90
10070;DHT22;5074;53.720;10.014;2022-09-09T11:35:20;19.70;99.90
10070;DHT22;5074;53.720;10.014;2022-09-09T11:38:10;19.70;99.90
10070;DHT22;5074;53.720;10.014;2022-09-09T11:40:46;19.80;99.90
10070;DHT22;5074;53.720;10.014;2022-09-09T11:43:15;19.90;99.90
10070;DHT22;5074;53.720;10.014;2022-09-09T11:45:50;19.90;99.90
10070;DHT22;5074;53.720;10.014;2022-09-09T11:48:28;19.80;99.90
10070;DHT22;5074;53.720;10.014;2022-09-09T11:51:01;19.60;99.90
10070;DHT22;5074;53.720;10.014;2022-09-09T11:53:48;19.60;99.90
10070;DHT22;5074;53.720;10.014;2022-09-09T11:56:24;19.80;99.90
10070;DHT22;5074;53.720;10.014;2022-09-09T11:58:56;20.10;99.90
10070;DHT22;5074;53.720;10.014;2022-09-09T12:01:28;20.30;99.90
10070;DHT22;5074;53.720;10.014;2022-09-09T12:04:10;20.60;99.90
10070;DHT22;5074;53.720;10.014;2022-09-09T12:06:49;20.90;99.90
10070;DHT22;5074;53.720;10.014;2022-09-09T12:09:24;21.10;99.90
10070;DHT22;5074;53.720;10.014;2022-09-09T12:12:06;21.10;99.90
10070;DHT22;5074;53.720;10.014;2022-09-09T12:15:15;21.20;99.90
10070;DHT22;5074;53.720;10.014;2022-09-09T12:17:55;21.30;99.90
10070;DHT22;5074;53.720;10.014;2022-09-09T12:20:31;21.20;99.90
10070;DHT22;5074;53.720;10.014;2022-09-09T12:23:10;21.30;99.90
10070;DHT22;5074;53.720;10.014;2022-09-09T12:25:51;21.40;99.90
10070;DHT22;5074;53.720;10.014;2022-09-09T12:28:27;21.40;99.90
10070;DHT22;5074;53.720;10.014;2022-09-09T12:31:08;21.40;99.90
10070;DHT22;5074;53.720;10.014;2022-09-09T12:33:45;21.20;99.90
10070;DHT22;5074;53.720;10.014;2022-09-09T12:36:15;21.00;99.90
10070;DHT22;5074;53.720;10.014;2022-09-09T12:38:46;20.70;99.90
10070;DHT22;5074;53.720;10.014;2022-09-09T12:41:20;20.30;99.90
10070;DHT22;5074;53.720;10.014;2022-09-09T12:43:49;20.20;99.90
10070;DHT22;5074;53.720;10.014;2022-09-09T12:46:22;20.20;99.90
10070;DHT22;5074;53.720;10.014;2022-09-09T12:48:59;20.30;99.90
10070;DHT22;5074;53.720;10.014;2022-09-09T12:51:29;20.40;99.90
10070;DHT22;5074;53.720;10.014;2022-09-09T12:53:59;20.50;99.90
10070;DHT22;5074;53.720;10.014;2022-09-09T12:56:29;20.50;99.90
10070;DHT22;5074;53.720;10.014;2022-09-09T12:58:59;20.70;99.90
10070;DHT22;5074;53.720;10.014;2022-09-09T13:01:28;20.90;99.90
10070;DHT22;5074;53.720;10.014;2022-09-09T13:03:57;21.30;99.90
10070;DHT22;5074;53.720;10.014;2022-09-09T13:06:27;21.60;99.90
10070;DHT22;5074;53.720;10.014;2022-09-09T13:08:56;21.70;99.90
10070;DHT22;5074;53.720;10.014;2022-09-09T13:11:27;21.60;99.90
10070;DHT22;5074;53.720;10.014;2022-09-09T13:14:03;21.70;99.90
10070;DHT22;5074;53.720;10.014;2022-09-09T13:16:33;21.60;99.90
10070;DHT22;5074;53.720;10.014;2022-09-09T13:19:08;21.40;99.90
10070;DHT22;5074;53.720;10.014;2022-09-09T13:21:41;21.20;99.90
10070;DHT22;5074;53.720;10.014;2022-09-09T13:24:22;21.00;99.90
10070;DHT22;5074;53.720;10.014;2022-09-09T13:26:56;20.60;99.90
10070;DHT22;5074;53.720;10.014;2022-09-09T13:29:27;20.30;99.90
10070;DHT22;5074;53.720;10.014;2022-09-09T13:32:03;20.00;99.90
10070;DHT22;5074;53.720;10.014;2022-09-09T13:34:33;19.60;99.90
10070;DHT22;5074;53.720;10.014;2022-09-09T13:37:03;19.40;99.90
10070;DHT22;5074;53.720;10.014;2022-09-09T13:39:33;19.20;99.90
10070;DHT22;5074;53.720;10.014;2022-09-09T13:42:05;19.00;99.90
10070;DHT22;5074;53.720;10.014;2022-09-09T13:44:34;18.70;99.90
10070;DHT22;5074;53.720;10.014;2022-09-09T13:47:15;18.50;99.90
10070;DHT22;5074;53.720;10.014;2022-09-09T13:49:46;18.30;99.90
10070;DHT22;5074;53.720;10.014;2022-09-09T13:52:15;18.10;99.90
10070;DHT22;5074;53.720;10.014;2022-09-09T13:54:46;17.90;99.90
10070;DHT22;5074;53.720;10.014;2022-09-09T13:57:17;17.80;99.90
10070;DHT22;5074;53.720;10.014;2022-09-09T13:59:46;17.60;99.90
10070;DHT22;5074;53.720;10.014;2022-09-09T14:02:31;17.50;99.90
10070;DHT22;5074;53.720;10.014;2022-09-09T14:05:00;17.10;99.90
10070;DHT22;5074;53.720;10.014;2022-09-09T14:07:28;17.00;99.90
10070;DHT22;5074;53.720;10.014;2022-09-09T14:09:56;16.90;99.90
10070;DHT22;5074;53.720;10.014;2022-09-09T14:12:28;16.80;99.90
10070;DHT22;5074;53.720;10.014;2022-09-09T14:14:56;16.80;99.90
10070;DHT22;5074;53.720;10.014;2022-09-09T14:17:24;16.70;99.90
10070;DHT22;5074;53.720;10.014;2022-09-09T14:19:55;16.70;99.90
10070;DHT22;5074;53.720;10.014;2022-09-09T14:22:24;16.70;99.90
10070;DHT22;5074;53.720;10.014;2022-09-09T14:24:52;16.70;99.90
10070;DHT22;5074;53.720;10.014;2022-09-09T14:27:20;16.60;99.90
10070;DHT22;5074;53.720;10.014;2022-09-09T14:29:50;16.50;99.90
10070;DHT22;5074;53.720;10.014;2022-09-09T14:32:18;16.50;99.90
10070;DHT22;5074;53.720;10.014;2022-09-09T14:34:46;16.50;99.90
10070;DHT22;5074;53.720;10.014;2022-09-09T14:37:16;16.50;99.90
10070;DHT22;5074;53.720;10.014;2022-09-09T14:39:44;16.50;99.90
10070;DHT22;5074;53.720;10.014;2022-09-09T14:42:13;16.50;99.90
10070;DHT22;5074;53.720;10.014;2022-09-09T14:44:42;16.50;99.90
10070;DHT22;5074;53.720;10.014;2022-09-09T14:47:11;16.50;99.90
10070;DHT22;5074;53.720;10.014;2022-09-09T14:49:39;16.50;99.90
10070;DHT22;5074;53.720;10.014;2022-09-09T14:52:12;16.60;99.90
10070;DHT22;5074;53.720;10.014;2022-09-09T14:54:40;16.60;99.90
10070;DHT22;5074;53.720;10.014;2022-09-09T14:57:08;16.60;99.90
10070;DHT22;5074;53.720;10.014;2022-09-09T14:59:36;16.60;99.90
10070;DHT22;5074;53.720;10.014;2022-09-09T15:02:04;16.60;99.90
10070;DHT22;5074;53.720;10.014;2022-09-09T15:04:34;16.60;99.90
10070;DHT22;5074;53.720;10.014;2022-09-09T15:07:02;16.70;99.90
10070;DHT22;5074;53.720;10.014;2022-09-09T15:09:30;16.70;99.90
10070;DHT22;5074;53.720;10.014;2022-09-09T15:11:58;16.70;99.90
10070;DHT22;5074;53.720;10.014;2022-09-09T15:14:27;16.70;99.90
10070;DHT22;5074;53.720;10.014;2022-09-09T15:16:55;16.70;99.90
10070;DHT22;5074;53.720;10.014;2022-09-09T15:19:23;16.70;99.90
10070;DHT22;5074;53.720;10.014;2022-09-09T15:21:52;16.70;99.90
10070;DHT22;5074;53.720;10.014;2022-09-09T15:24:20;16.70;99.90
10070;DHT22;5074;53.720;10.014;2022-09-09T15:26:48;16.80;99.90
10070;DHT22;5074;53.720;10.014;2022-09-09T15:29:17;16.80;99.90
10070;DHT22;5074;53.720;10.014;2022-09-09T15:31:45;16.90;99.90
10070;DHT22;5074;53.720;10.014;2022-09-09T15:34:13;16.90;99.90
10070;DHT22;5074;53.720;10.014;2022-09-09T15:36:42;17.00;99.90
10070;DHT22;5074;53.720;10.014;2022-09-09T15:39:14;17.10;99.90
10070;DHT22;5074;53.720;10.014;2022-09-09T15:41:43;17.30;99.90
10070;DHT22;5074;53.720;10.014;2022-09-09T15:44:13;17.50;99.90
10070;DHT22;5074;53.720;10.014;2022-09-09T15:46:42;17.70;99.90
10070;DHT22;5074;53.720;10.014;2022-09-09T15:49:12;18.00;99.90
10070;DHT22;5074;53.720;10.014;2022-09-09T15:51:42;18.30;99.90
10070;DHT22;5074;53.720;10.014;2022-09-09T15:54:11;18.70;99.90
10070;DHT22;5074;53.720;10.014;2022-09-09T15:56:43;19.10;99.90
10070;DHT22;5074;53.720;10.014;2022-09-09T15:59:11;19.70;99.90
10070;DHT22;5074;53.720;10.014;2022-09-09T16:01:41;20.20;99.90
10070;DHT22;5074;53.720;10.014;2022-09-09T16:04:10;20.60;99.90
10070;DHT22;5074;53.720;10.014;2022-09-09T16:06:38;21.10;99.90
10070;DHT22;5074;53.720;10.014;2022-09-09T16:09:06;21.40;99.90